X  Close Metar Aviation Weather Data     KRYV Watertown Municipal Airport
Temperature
72°F Temperature
57°F Dewpoint
61% Humidity



Wind
7 MPH
11 KM/H
3 M/S
6 KTS



360°
North
Current Conditions

Overcast Overcast
Pressure 1021.33 (hPa) - 30.16 (inHg)
Visibility 10 (mile) - 16.1 (km)
Airport
Airport-code KRYV

Location: Watertown Municipal Airport
Distance: 8 (mi)

Metar:
KRYV 242215Z AUTO 36006KT 10SM OVC050 22/14 A3016 RMK AO2 T02240143

Time: 24-07-2024 22:15 CDT